createdAt,value
2023-04-20T00:00:48.426Z,15.14
2023-04-20T00:05:49.438Z,15.04
2023-04-20T00:10:49.744Z,14.96
2023-04-20T00:15:48.733Z,14.89
2023-04-20T00:20:47.589Z,14.81
2023-04-20T00:25:46.559Z,14.72
2023-04-20T00:30:47.002Z,14.65
2023-04-20T00:35:45.892Z,14.61
2023-04-20T00:40:49.027Z,14.57
2023-04-20T00:45:49.578Z,14.55
2023-04-20T00:50:49.483Z,14.54
2023-04-20T00:55:49.142Z,14.55
2023-04-20T01:00:49.582Z,14.53
2023-04-20T01:05:50.103Z,14.52
2023-04-20T01:10:49.010Z,14.51
2023-04-20T01:15:49.453Z,14.50
2023-04-20T01:20:48.518Z,14.45
2023-04-20T01:25:48.844Z,14.42
2023-04-20T01:30:48.044Z,14.36
2023-04-20T01:35:47.046Z,14.31
2023-04-20T01:40:45.962Z,14.30
2023-04-20T01:45:46.683Z,14.20
2023-04-20T01:50:45.696Z,14.19
2023-04-20T01:55:45.361Z,14.14
2023-04-20T02:00:47.244Z,14.02
2023-04-20T02:05:46.185Z,14.01
2023-04-20T02:10:45.204Z,14.01
2023-04-20T02:15:46.680Z,13.94
2023-04-20T02:20:46.234Z,13.92
2023-04-20T02:25:45.164Z,13.87
2023-04-20T02:30:44.256Z,13.80
2023-04-20T02:35:45.484Z,13.76
2023-04-20T02:40:44.509Z,13.74
2023-04-20T02:45:43.474Z,13.72
2023-04-20T02:50:44.903Z,13.70
2023-04-20T02:55:49.451Z,13.69
2023-04-20T03:01:24.186Z,13.62
2023-04-20T03:06:33.594Z,13.52
2023-04-20T03:11:33.098Z,13.55
2023-04-20T03:16:32.847Z,13.54
2023-04-20T03:21:33.722Z,13.54
2023-04-20T03:26:32.751Z,13.49
2023-04-20T03:31:46.707Z,13.51
2023-04-20T03:36:47.250Z,13.40
2023-04-20T03:41:46.414Z,13.37
2023-04-20T03:46:45.504Z,13.44
2023-04-20T03:51:44.376Z,13.40
2023-04-20T03:56:46.206Z,13.40
2023-04-20T04:01:46.010Z,13.16
2023-04-20T04:06:45.302Z,13.31
2023-04-20T04:11:45.796Z,13.16
2023-04-20T04:16:46.591Z,13.28
2023-04-20T04:21:46.080Z,13.20
2023-04-20T04:26:48.841Z,13.28
2023-04-20T04:31:50.583Z,13.19
2023-04-20T04:36:52.572Z,13.32
2023-04-20T04:42:00.813Z,13.34
2023-04-20T04:47:12.216Z,13.26
2023-04-20T04:52:11.488Z,13.18
2023-04-20T04:57:12.182Z,13.27
2023-04-20T05:02:13.384Z,13.19
2023-04-20T05:07:14.266Z,13.11
2023-04-20T05:12:14.521Z,13.13
2023-04-20T05:17:13.383Z,13.08
2023-04-20T05:22:12.182Z,13.03
2023-04-20T05:27:11.472Z,12.99
2023-04-20T05:32:11.807Z,13.00
2023-04-20T05:37:10.613Z,13.03
2023-04-20T05:42:09.357Z,12.96
2023-04-20T05:47:08.916Z,13.13
2023-04-20T05:52:09.164Z,13.29
2023-04-20T05:57:07.889Z,13.36
2023-04-20T06:02:07.149Z,13.39
2023-04-20T06:07:06.049Z,13.45
2023-04-20T06:12:06.631Z,13.53
2023-04-20T06:17:05.386Z,13.50
2023-04-20T06:22:07.787Z,13.46
2023-04-20T06:27:07.966Z,13.84
2023-04-20T06:32:06.997Z,13.75
2023-04-20T06:37:07.713Z,13.88
2023-04-20T06:42:09.776Z,13.96
2023-04-20T06:47:08.739Z,13.74
2023-04-20T06:52:07.628Z,13.81
2023-04-20T06:57:07.892Z,13.90
2023-04-20T07:02:06.924Z,13.85
2023-04-20T07:07:05.789Z,13.94
2023-04-20T07:12:04.735Z,14.05
2023-04-20T07:17:04.964Z,14.12
2023-04-20T07:22:03.844Z,14.00
2023-04-20T07:27:02.799Z,13.97
2023-04-20T07:32:01.732Z,14.14
2023-04-20T07:37:03.932Z,14.14
2023-04-20T07:42:04.634Z,14.23
2023-04-20T07:47:04.860Z,14.29
2023-04-20T07:52:15.871Z,14.17
2023-04-20T07:57:16.282Z,14.23
2023-04-20T08:02:15.442Z,14.30
2023-04-20T08:07:15.883Z,14.34
2023-04-20T08:12:15.099Z,14.47
2023-04-20T08:17:14.078Z,14.36
2023-04-20T08:22:13.629Z,14.46
2023-04-20T08:27:13.780Z,14.43
2023-04-20T08:32:12.680Z,14.50
2023-04-20T08:37:11.523Z,14.55
2023-04-20T08:42:10.502Z,14.65
2023-04-20T08:47:11.652Z,14.76
2023-04-20T08:52:11.318Z,14.78
2023-04-20T08:57:10.077Z,14.75
2023-04-20T09:02:14.748Z,14.66
2023-04-20T09:07:21.040Z,15.19
2023-04-20T09:12:21.608Z,15.65
2023-04-20T09:17:33.651Z,16.24
2023-04-20T09:22:33.752Z,16.93
2023-04-20T09:27:32.627Z,17.86
2023-04-20T09:32:33.288Z,17.76
2023-04-20T09:37:32.065Z,18.78
2023-04-20T09:42:33.356Z,19.19
2023-04-20T09:47:36.943Z,19.46
2023-04-20T09:52:38.934Z,19.59
2023-04-20T10:03:43.336Z,19.30
2023-04-20T10:08:42.822Z,19.10
2023-04-20T10:13:41.594Z,19.29
2023-04-20T10:18:41.931Z,19.38
2023-04-20T10:23:49.466Z,19.79
2023-04-20T10:28:48.313Z,20.43
2023-04-20T10:33:53.505Z,20.99
2023-04-20T10:38:53.049Z,21.66
2023-04-20T10:43:52.294Z,22.07
2023-04-20T10:48:54.124Z,23.18
2023-04-20T10:54:00.687Z,23.36
2023-04-20T10:59:08.359Z,24.72
2023-04-20T11:04:09.340Z,25.68
2023-04-20T11:09:20.066Z,26.94
2023-04-20T11:14:19.221Z,27.37
2023-04-20T11:19:26.887Z,27.62
2023-04-20T11:24:27.461Z,28.41
2023-04-20T11:29:31.982Z,28.73
2023-04-20T11:34:33.612Z,29.33
2023-04-20T11:39:33.605Z,29.98
2023-04-20T11:44:33.283Z,30.84
2023-04-20T11:50:03.558Z,31.61
2023-04-20T11:55:02.824Z,29.99
2023-04-20T12:00:01.715Z,29.59
2023-04-20T12:05:03.316Z,29.71
2023-04-20T12:10:02.406Z,30.90
2023-04-20T12:15:01.209Z,31.55
2023-04-20T12:20:02.866Z,31.60
2023-04-20T12:25:01.847Z,31.52
2023-04-20T12:30:00.567Z,31.19
2023-04-20T12:34:59.337Z,31.07
2023-04-20T12:39:59.437Z,30.29
2023-04-20T12:44:58.228Z,29.77
2023-04-20T12:49:57.032Z,28.12
2023-04-20T12:54:59.503Z,24.99
2023-04-20T12:59:58.507Z,24.30
2023-04-20T13:04:58.481Z,23.86
2023-04-20T13:09:57.335Z,23.37
2023-04-20T13:14:57.523Z,22.96
2023-04-20T13:19:56.408Z,22.51
2023-04-20T13:24:55.226Z,22.04
2023-04-20T13:29:54.039Z,21.93
2023-04-20T13:34:54.231Z,21.98
2023-04-20T13:39:53.024Z,22.26
2023-04-20T13:44:52.514Z,23.09
2023-04-20T13:49:51.402Z,24.16
2023-04-20T13:54:51.697Z,25.02
2023-04-20T13:59:51.374Z,26.05
2023-04-20T14:04:50.238Z,26.80
2023-04-20T14:09:49.199Z,27.50
2023-04-20T14:14:49.651Z,27.48
2023-04-20T14:19:49.681Z,27.40
2023-04-20T14:24:49.201Z,27.68
2023-04-20T14:29:49.432Z,27.38
2023-04-20T14:34:48.217Z,27.31
2023-04-20T14:39:47.258Z,27.81
2023-04-20T14:44:47.847Z,28.34
2023-04-20T14:49:48.018Z,28.84
2023-04-20T14:54:46.980Z,29.04
2023-04-20T14:59:45.808Z,29.18
2023-04-20T15:04:44.616Z,29.09
2023-04-20T15:09:44.934Z,29.15
2023-04-20T15:14:43.857Z,29.09
2023-04-20T15:19:46.149Z,29.00
2023-04-20T15:24:46.448Z,28.88
2023-04-20T15:29:45.197Z,28.15
2023-04-20T15:34:43.951Z,27.40
2023-04-20T15:39:42.751Z,26.74
2023-04-20T15:44:42.934Z,25.82
2023-04-20T15:49:41.956Z,25.04
2023-04-20T15:54:41.328Z,24.44
2023-04-20T15:59:43.819Z,24.06
2023-04-20T16:04:42.885Z,23.43
2023-04-20T16:09:43.126Z,22.88
2023-04-20T16:14:43.428Z,22.20
2023-04-20T16:19:42.205Z,21.79
2023-04-20T16:24:41.259Z,21.45
2023-04-20T16:29:40.134Z,21.08
2023-04-20T16:34:41.136Z,20.76
2023-04-20T16:39:39.927Z,20.51
2023-04-20T16:44:41.107Z,20.21
2023-04-20T16:49:42.030Z,19.91
2023-04-20T16:54:41.802Z,19.61
2023-04-20T16:59:40.700Z,19.33
2023-04-20T17:04:39.553Z,19.18
2023-04-20T17:09:39.851Z,19.10
2023-04-20T17:14:38.699Z,18.96
2023-04-20T17:19:40.743Z,18.88
2023-04-20T17:24:41.071Z,18.79
2023-04-20T17:29:40.333Z,18.74
2023-04-20T17:34:40.101Z,18.39
2023-04-20T17:39:40.608Z,18.20
2023-04-20T17:44:39.696Z,18.28
2023-04-20T17:49:41.464Z,18.24
2023-04-20T17:54:41.787Z,18.06
2023-04-20T17:59:41.914Z,17.93
2023-04-20T18:04:41.055Z,17.73
2023-04-20T18:09:41.441Z,17.50
2023-04-20T18:14:42.568Z,17.38
2023-04-20T18:19:41.987Z,17.29
2023-04-20T18:24:42.327Z,17.15
2023-04-20T18:29:42.869Z,16.94
2023-04-20T18:34:41.717Z,16.78
2023-04-20T18:39:41.904Z,16.36
2023-04-20T18:44:40.752Z,15.80
2023-04-20T18:49:39.613Z,15.48
2023-04-20T18:54:38.658Z,15.66
2023-04-20T18:59:39.013Z,15.72
2023-04-20T19:04:37.983Z,15.69
2023-04-20T19:09:36.736Z,15.73
2023-04-20T19:14:35.543Z,15.76
2023-04-20T19:19:38.244Z,15.77
2023-04-20T19:24:37.094Z,15.68
2023-04-20T19:29:37.140Z,15.62
2023-04-20T19:34:38.029Z,15.58
2023-04-20T19:39:37.022Z,15.48
2023-04-20T19:44:35.950Z,15.49
2023-04-20T19:49:34.714Z,15.35
2023-04-20T19:54:35.278Z,15.38
2023-04-20T19:59:34.061Z,15.34
2023-04-20T20:04:33.806Z,15.31
2023-04-20T20:09:34.044Z,15.36
2023-04-20T20:14:32.957Z,15.34
2023-04-20T20:19:31.807Z,15.29
2023-04-20T20:24:30.548Z,15.23
2023-04-20T20:29:30.731Z,15.17
2023-04-20T20:34:30.829Z,15.12
2023-04-20T20:39:29.674Z,15.13
2023-04-20T20:44:33.027Z,15.02
2023-04-20T20:49:31.822Z,14.96
2023-04-20T20:54:30.534Z,15.00
2023-04-20T20:59:30.661Z,14.62
2023-04-20T21:04:30.288Z,14.44
2023-04-20T21:09:29.017Z,14.55
2023-04-20T21:14:27.970Z,14.47
2023-04-20T21:19:28.150Z,14.44
2023-04-20T21:24:26.937Z,13.95
2023-04-20T21:29:25.811Z,13.74
2023-04-20T21:34:24.753Z,13.90
2023-04-20T21:39:24.934Z,13.81
2023-04-20T21:44:23.698Z,13.58
2023-04-20T21:49:22.694Z,13.37
2023-04-20T21:54:21.564Z,13.31
2023-04-20T21:59:21.857Z,13.09
2023-04-20T22:04:20.808Z,13.00
2023-04-20T22:09:19.785Z,12.99
2023-04-20T22:14:18.892Z,12.88
2023-04-20T22:19:19.228Z,12.79
2023-04-20T22:24:18.112Z,12.92
2023-04-20T22:29:19.626Z,12.95
2023-04-20T22:34:20.154Z,13.03
2023-04-20T22:39:19.210Z,12.92
2023-04-20T22:44:18.181Z,12.99
2023-04-20T22:49:17.187Z,13.02
2023-04-20T22:54:17.864Z,13.23
2023-04-20T22:59:17.098Z,13.11
2023-04-20T23:04:16.370Z,13.29
2023-04-20T23:09:20.505Z,13.59
2023-04-20T23:14:22.572Z,13.65
2023-04-20T23:19:21.918Z,13.64
2023-04-20T23:24:27.995Z,13.89
2023-04-20T23:29:28.613Z,13.99
2023-04-20T23:34:27.567Z,14.06
2023-04-20T23:39:26.279Z,14.11
2023-04-20T23:44:25.148Z,14.16
2023-04-20T23:49:25.465Z,14.01
2023-04-20T23:54:24.154Z,13.67
2023-04-20T23:59:22.914Z,13.41
